createdAt,value
2018-11-07T00:00:22.536Z,66.5
2018-11-07T00:01:22.492Z,66.3
2018-11-07T00:02:22.396Z,67
2018-11-07T00:03:22.292Z,67.2
2018-11-07T00:04:22.203Z,67.5
2018-11-07T00:05:22.579Z,67.3
2018-11-07T00:06:22.491Z,67.4
2018-11-07T00:07:22.418Z,67
2018-11-07T00:08:23.447Z,67.6
2018-11-07T00:09:23.614Z,67.4
2018-11-07T00:10:23.537Z,67.4
2018-11-07T00:11:23.439Z,67.9
2018-11-07T00:12:23.351Z,68.3
2018-11-07T00:13:23.274Z,68.4
2018-11-07T00:14:23.170Z,68.2
2018-11-07T00:15:23.595Z,68.7
2018-11-07T00:16:23.504Z,68.9
2018-11-07T00:17:23.418Z,68.9
2018-11-07T00:18:23.325Z,69
2018-11-07T00:19:23.464Z,68.9
2018-11-07T00:20:23.482Z,68.8
2018-11-07T00:21:23.412Z,69.1
2018-11-07T00:22:23.332Z,69.1
2018-11-07T00:23:23.253Z,69.1
2018-11-07T00:24:23.161Z,69.6
2018-11-07T00:25:23.504Z,69.7
2018-11-07T00:26:23.843Z,69.7
2018-11-07T00:27:24.060Z,69.4
2018-11-07T00:28:23.983Z,69.6
2018-11-07T00:29:23.903Z,69
2018-11-07T00:30:23.827Z,69.1
2018-11-07T00:31:23.744Z,69
2018-11-07T00:32:23.644Z,68.9
2018-11-07T00:33:23.554Z,69.1
2018-11-07T00:34:23.476Z,69.3
2018-11-07T00:35:24.125Z,69.5
2018-11-07T00:36:24.033Z,69.5
2018-11-07T00:37:23.978Z,69.8
2018-11-07T00:38:23.890Z,70.1
2018-11-07T00:39:23.797Z,70.1
2018-11-07T00:40:23.687Z,70.3
2018-11-07T00:41:23.600Z,70.1
2018-11-07T00:42:23.982Z,70.1
2018-11-07T00:43:24.320Z,70.2
2018-11-07T00:44:24.223Z,70.3
2018-11-07T00:45:24.573Z,69.8
2018-11-07T00:46:24.473Z,70.4
2018-11-07T00:47:24.441Z,70.4
2018-11-07T00:48:24.354Z,70.5
2018-11-07T00:49:24.262Z,70.4
2018-11-07T00:50:24.189Z,70.8
2018-11-07T00:51:24.100Z,70.8
2018-11-07T00:52:24.007Z,70.9
2018-11-07T00:53:23.937Z,71.1
2018-11-07T00:54:23.848Z,70.9
2018-11-07T00:55:24.199Z,71.3
2018-11-07T00:56:24.116Z,71
2018-11-07T02:10:51.992Z,73
2018-11-07T02:11:51.920Z,73.2
2018-11-07T02:12:51.825Z,73.8
2018-11-07T02:13:52.159Z,72.4
2018-11-07T02:43:46.687Z,68.3
2018-11-07T02:44:46.609Z,69.4
2018-11-07T02:45:46.513Z,70.1
2018-11-07T02:46:46.433Z,70.8
2018-11-07T02:47:46.352Z,70.9
2018-11-07T02:48:46.260Z,71.3
2018-11-07T02:49:46.184Z,71.9
2018-11-07T02:50:46.099Z,71.8
2018-11-07T02:51:46.025Z,72
2018-11-07T02:52:45.948Z,72.1
2018-11-07T02:53:46.385Z,72.2
2018-11-07T02:54:46.282Z,72.5
2018-11-07T02:55:46.203Z,72.3
2018-11-07T02:56:46.104Z,72.7
2018-11-07T02:57:46.028Z,72.3
2018-11-07T02:58:45.939Z,72.9
2018-11-07T02:59:45.860Z,72.2
2018-11-07T03:00:45.783Z,72.2
2018-11-07T03:01:45.714Z,73
2018-11-07T03:02:45.625Z,72.7
2018-11-07T03:03:45.962Z,72.6
2018-11-07T03:04:46.205Z,72.9
2018-11-07T03:05:46.177Z,72.3
2018-11-07T03:06:46.090Z,72.1
2018-11-07T03:07:45.994Z,72.9
2018-11-07T03:08:45.900Z,73.1
2018-11-07T03:09:45.806Z,73.2
2018-11-07T03:10:46.221Z,73.5
2018-11-07T03:11:46.584Z,73.4
2018-11-07T03:12:46.527Z,73.2
2018-11-07T03:13:46.872Z,73.5
2018-11-07T03:14:46.771Z,73.5
2018-11-07T03:15:46.651Z,73.6
2018-11-07T03:16:46.549Z,73.8
2018-11-07T03:17:46.475Z,73.9
2018-11-07T03:18:46.396Z,73.9
2018-11-07T03:19:46.289Z,73.8
2018-11-07T03:20:46.198Z,73.5
2018-11-07T03:21:46.134Z,73.1
2018-11-07T03:22:46.036Z,73.1
2018-11-07T03:23:46.378Z,73.3
2018-11-07T03:24:46.289Z,72.7
2018-11-07T03:25:46.209Z,72.1
2018-11-07T03:26:46.112Z,72.5
2018-11-07T03:27:46.001Z,72.7
2018-11-07T03:28:45.903Z,73.1
2018-11-07T03:29:45.828Z,73.3
2018-11-07T03:30:45.749Z,73.8
2018-11-07T03:31:45.665Z,73.6
2018-11-07T03:32:45.584Z,73.1
2018-11-07T03:33:45.940Z,73.6
2018-11-07T03:34:45.867Z,73.2
2018-11-07T03:35:45.767Z,73.7
2018-11-07T03:36:45.677Z,73.1
2018-11-07T03:37:45.589Z,73.2
2018-11-07T03:38:45.489Z,73.4
2018-11-07T03:39:45.827Z,73.7
2018-11-07T03:40:46.003Z,73.4
2018-11-07T03:41:45.907Z,73.7
2018-11-07T03:42:45.820Z,74
2018-11-07T03:43:46.186Z,74.1
2018-11-07T03:44:46.090Z,74.1
2018-11-07T03:45:46.000Z,74.6
2018-11-07T03:46:45.928Z,75
2018-11-07T03:47:45.849Z,75.1
2018-11-07T03:48:45.747Z,74.7
2018-11-07T03:49:45.680Z,74.7
2018-11-07T03:50:45.594Z,74.5
2018-11-07T03:51:45.489Z,74.2
2018-11-07T03:52:45.407Z,74.7
2018-11-07T03:53:46.085Z,74.6
2018-11-07T03:54:45.998Z,74.5
2018-11-07T03:55:45.891Z,74.5
2018-11-07T03:56:45.849Z,74.2
2018-11-07T03:57:45.729Z,74.4
2018-11-07T03:58:45.615Z,74.9
2018-11-07T03:59:45.511Z,74.6
2018-11-07T04:00:45.421Z,75
2018-11-07T04:01:45.330Z,74.9
2018-11-07T04:02:45.258Z,75.4
2018-11-07T04:03:45.594Z,75.3
2018-11-07T04:04:45.518Z,75.2
2018-11-07T04:05:45.417Z,74.9
2018-11-07T04:06:45.335Z,74.8
2018-11-07T04:07:45.241Z,74.9
2018-11-07T04:08:45.143Z,75.5
2018-11-07T04:09:45.038Z,75.4
2018-11-07T04:10:44.937Z,74.9
2018-11-07T04:11:44.839Z,75.4
2018-11-07T04:12:44.758Z,75.3
2018-11-07T04:13:45.106Z,73.8
2018-11-07T04:23:44.382Z,71.3
2018-11-07T04:24:44.317Z,71.8
2018-11-07T04:25:44.205Z,72.4
2018-11-07T04:26:44.091Z,71.9
2018-11-07T04:27:44.025Z,72.2
2018-11-07T04:28:43.917Z,72.3
2018-11-07T04:29:43.804Z,72.9
2018-11-07T04:30:43.701Z,72
2018-11-07T04:31:43.610Z,72.6
2018-11-07T04:32:43.591Z,72.9
2018-11-07T05:03:37.605Z,71
2018-11-07T05:04:37.501Z,71.7
2018-11-07T05:05:37.402Z,72.3
2018-11-07T05:06:37.315Z,72.5
2018-11-07T05:07:37.223Z,72.4
2018-11-07T05:08:37.454Z,72.4
2018-11-07T05:09:37.536Z,72.9
2018-11-07T05:10:37.466Z,73.4
2018-11-07T05:11:37.374Z,73.6
2018-11-07T05:12:37.282Z,73.6
2018-11-07T05:13:37.629Z,74.2
2018-11-07T05:14:37.532Z,74.5
2018-11-07T05:15:37.465Z,74.7
2018-11-07T05:16:37.370Z,74.3
2018-11-07T05:17:37.271Z,74.9
2018-11-07T05:18:37.182Z,74.7
2018-11-07T05:19:37.474Z,74.9
2018-11-07T05:20:37.590Z,74.7
2018-11-07T05:21:37.470Z,74.5
2018-11-07T05:22:37.364Z,74.3
2018-11-07T05:23:37.687Z,74.9
2018-11-07T05:24:37.610Z,75
2018-11-07T05:25:37.503Z,75.2
2018-11-07T05:26:37.420Z,74.7
2018-11-07T05:27:37.338Z,75.2
2018-11-07T05:28:37.235Z,75
2018-11-07T05:29:37.174Z,75.1
2018-11-07T05:30:37.083Z,75.5
2018-11-07T05:31:37.013Z,75.3
2018-11-07T05:32:36.917Z,75.6
2018-11-07T05:33:37.274Z,75.8
2018-11-07T05:34:37.181Z,76.3
2018-11-07T05:35:37.084Z,76.4
2018-11-07T05:36:36.982Z,76.6
2018-11-07T05:37:36.902Z,76.5
2018-11-07T05:38:36.816Z,76
2018-11-07T05:39:36.694Z,75.9
2018-11-07T05:40:36.584Z,75.6
2018-11-07T05:41:36.494Z,75.6
2018-11-07T05:42:36.422Z,75.9
2018-11-07T05:43:36.786Z,76.2
2018-11-07T05:44:36.706Z,76.9
2018-11-07T05:45:36.636Z,77.5
2018-11-07T05:46:36.566Z,77.5
2018-11-07T05:47:36.480Z,77.7
2018-11-07T05:48:36.492Z,77.7
2018-11-07T05:49:36.445Z,78
2018-11-07T05:50:36.338Z,77.5
2018-11-07T05:51:36.242Z,77.8
2018-11-07T05:52:36.140Z,77
2018-11-07T05:53:36.493Z,77.3
2018-11-07T05:54:36.402Z,77.2
2018-11-07T05:55:36.317Z,77.4
2018-11-07T05:56:36.237Z,77.7
2018-11-07T05:57:36.146Z,77.9
2018-11-07T05:58:36.063Z,77.5
2018-11-07T05:59:35.967Z,77.1
2018-11-07T06:00:35.863Z,77.6
2018-11-07T06:01:35.782Z,77.3
2018-11-07T06:02:35.669Z,78.3
2018-11-07T06:03:36.030Z,77.9
2018-11-07T06:04:35.924Z,77.4
2018-11-07T06:05:35.829Z,77.8
2018-11-07T06:06:35.815Z,77.4
2018-11-07T06:07:35.716Z,77.6
2018-11-07T06:08:35.642Z,76.9
2018-11-07T06:09:35.716Z,76.9
2018-11-07T06:10:35.620Z,77
2018-11-07T06:11:35.530Z,77.1
2018-11-07T06:12:35.430Z,77.2
2018-11-07T06:13:35.780Z,76.6
2018-11-07T06:14:35.683Z,77.1
2018-11-07T06:15:35.611Z,77.1
2018-11-07T06:16:35.507Z,77.2
2018-11-07T06:17:35.387Z,76.9
2018-11-07T06:18:35.325Z,77.1
2018-11-07T06:19:35.233Z,77.2
2018-11-07T06:20:35.137Z,77.2
2018-11-07T06:21:35.041Z,77.4
2018-11-07T06:22:34.946Z,77.4
2018-11-07T06:23:35.640Z,77.9
2018-11-07T06:24:35.731Z,77.9
2018-11-07T06:25:35.725Z,77.9
2018-11-07T06:26:35.637Z,77.7
2018-11-07T06:27:35.521Z,78.1
2018-11-07T06:28:35.449Z,77.8
2018-11-07T06:29:35.529Z,77.9
2018-11-07T06:30:35.417Z,79
2018-11-07T06:31:35.324Z,78
2018-11-07T06:32:35.237Z,78.8
2018-11-07T06:53:31.743Z,71.7
2018-11-07T06:54:31.881Z,72.7
2018-11-07T06:55:31.912Z,73.3
2018-11-07T06:56:31.861Z,73.5
2018-11-07T06:57:31.766Z,73.6
2018-11-07T06:58:31.672Z,73.5
2018-11-07T06:59:31.569Z,74
2018-11-07T07:00:31.485Z,74.2
2018-11-07T07:01:31.796Z,74.5
2018-11-07T07:02:32.036Z,75
2018-11-07T07:03:32.385Z,75.2
2018-11-07T07:04:32.298Z,75.7
2018-11-07T07:05:32.219Z,75.6
2018-11-07T07:06:32.133Z,75.8
2018-11-07T07:07:32.078Z,76
2018-11-07T07:08:31.994Z,75.7
2018-11-07T07:09:31.943Z,75.4
2018-11-07T07:10:31.927Z,75.8
2018-11-07T07:11:31.829Z,76.3
2018-11-07T07:12:31.736Z,76.4
2018-11-07T07:13:32.106Z,76.3
2018-11-07T07:14:32.008Z,76.3
2018-11-07T07:15:31.906Z,76.3
2018-11-07T07:16:31.830Z,76.2
2018-11-07T07:17:32.315Z,76.3
2018-11-07T07:18:32.484Z,76.3
2018-11-07T07:19:32.455Z,76.6
2018-11-07T07:20:32.370Z,76.7
2018-11-07T07:21:32.281Z,76.7
2018-11-07T07:22:32.216Z,76.4
2018-11-07T07:23:32.544Z,75.7
2018-11-07T07:24:32.468Z,77
2018-11-07T07:25:32.837Z,77.2
2018-11-07T07:26:33.407Z,76.5
2018-11-07T07:27:33.326Z,76.6
2018-11-07T07:28:33.442Z,76.9
2018-11-07T07:29:33.346Z,77.4
2018-11-07T07:30:33.703Z,77.5
2018-11-07T07:31:34.010Z,77.4
2018-11-07T07:32:33.926Z,77.4
2018-11-07T07:33:35.293Z,77.8
2018-11-07T07:34:35.464Z,77.7
2018-11-07T07:35:35.366Z,77.6
2018-11-07T07:36:35.266Z,77.5
2018-11-07T07:37:35.416Z,77.5
2018-11-07T07:38:35.320Z,77.3
2018-11-07T07:39:35.222Z,77.2
2018-11-07T07:40:35.113Z,77.6
2018-11-07T07:41:34.992Z,77.2
2018-11-07T07:42:34.900Z,77.6
2018-11-07T07:43:35.262Z,77.5
2018-11-07T07:44:35.172Z,77.5
2018-11-07T07:45:35.520Z,77.7
2018-11-07T07:46:35.660Z,77.1
2018-11-07T07:47:35.574Z,77.1
2018-11-07T07:48:35.488Z,77.2
2018-11-07T07:49:35.593Z,77.8
2018-11-07T07:50:35.522Z,78
2018-11-07T07:51:35.721Z,77.8
2018-11-07T07:52:35.754Z,77.9
2018-11-07T07:53:40.199Z,77.8
2018-11-07T07:54:43.704Z,77.6
2018-11-07T07:55:46.318Z,76.9
2018-11-07T07:56:46.226Z,77.2
2018-11-07T07:57:46.369Z,77.1
2018-11-07T07:58:46.296Z,77.5
2018-11-07T07:59:46.182Z,76.9
2018-11-07T08:00:46.093Z,76.3
2018-11-07T08:01:45.986Z,77.6
2018-11-07T08:02:45.889Z,77.6
2018-11-07T08:03:46.264Z,76.8
2018-11-07T08:05:56.544Z,77.3
2018-11-07T08:06:56.786Z,76.6
2018-11-07T08:07:56.911Z,77
2018-11-07T08:08:56.803Z,77.1
2018-11-07T08:09:56.726Z,77.1
2018-11-07T08:10:56.622Z,77
2018-11-07T08:11:56.542Z,76
2018-11-07T08:12:56.453Z,76.9
2018-11-07T08:23:55.546Z,72.7
2018-11-07T08:24:55.461Z,73.3
2018-11-07T08:25:55.395Z,74.1
2018-11-07T08:26:55.284Z,73.2
2018-11-07T08:27:55.205Z,73.6
2018-11-07T08:28:55.252Z,73.5
2018-11-07T08:29:55.226Z,73.8
2018-11-07T08:30:55.548Z,73.5
2018-11-07T08:31:55.918Z,73.2
2018-11-07T08:32:55.830Z,73.3
2018-11-07T08:33:56.211Z,73.3
2018-11-07T08:34:56.120Z,72.4
2018-11-07T08:35:56.073Z,72.8
2018-11-07T08:36:55.989Z,72.7
2018-11-07T08:37:55.908Z,72.6
2018-11-07T08:38:55.832Z,72.8
2018-11-07T08:39:55.766Z,73.1
2018-11-07T08:40:55.693Z,72.3
2018-11-07T08:41:55.611Z,72.3
2018-11-07T08:42:55.526Z,73
2018-11-07T08:43:55.885Z,72.7
2018-11-07T08:44:55.787Z,72.5
2018-11-07T08:45:55.669Z,71.4
2018-11-07T08:46:55.587Z,70.7
2018-11-07T08:47:55.640Z,69.5
2018-11-07T08:48:55.632Z,69.2
2018-11-07T08:49:55.552Z,69.5
2018-11-07T08:50:55.449Z,68.7
2018-11-07T08:51:55.333Z,68.5
2018-11-07T08:52:55.233Z,68.9
2018-11-07T08:53:55.592Z,68.5
2018-11-07T08:54:55.831Z,68.6
2018-11-07T08:55:55.949Z,68.3
2018-11-07T08:56:55.870Z,67.6
2018-11-07T08:57:55.809Z,67.6
2018-11-07T08:58:55.763Z,66.6
2018-11-07T08:59:55.676Z,66.8
2018-11-07T09:00:55.597Z,66.9
2018-11-07T09:01:55.689Z,65.9
2018-11-07T09:02:55.650Z,66
2018-11-07T09:03:56.013Z,65.3
2018-11-07T09:23:54.489Z,60.1
2018-11-07T09:24:54.399Z,60.9
2018-11-07T09:25:54.317Z,61.6
2018-11-07T09:26:54.220Z,62
2018-11-07T09:27:54.121Z,62.1
2018-11-07T09:28:54.031Z,62.7
2018-11-07T09:29:53.963Z,62.5
2018-11-07T09:30:53.881Z,63.1
2018-11-07T09:31:53.777Z,62.6
2018-11-07T09:32:53.683Z,62.7
2018-11-07T09:33:54.017Z,62.5
2018-11-07T09:34:53.915Z,63.3
2018-11-07T09:35:53.842Z,62.5
2018-11-07T09:36:53.734Z,62.1
2018-11-07T09:37:53.647Z,63.2
2018-11-07T09:38:53.550Z,63
2018-11-07T09:39:53.488Z,62.9
2018-11-07T09:40:53.650Z,63
2018-11-07T09:41:53.577Z,62.7
2018-11-07T09:42:53.491Z,62.8
2018-11-07T09:43:53.823Z,62.3
2018-11-07T09:44:53.731Z,62.5
2018-11-07T09:45:53.734Z,62.5
2018-11-07T09:46:53.633Z,60.6
2018-11-07T09:47:53.544Z,61.4
2018-11-07T09:48:53.472Z,61.1
2018-11-07T09:49:53.372Z,60.3
2018-11-07T09:50:53.265Z,60
2018-11-07T09:51:53.162Z,60.8
2018-11-07T09:52:53.043Z,60.2
2018-11-07T09:53:58.023Z,61.6
2018-11-07T09:55:01.570Z,59.4
2018-11-07T09:56:01.516Z,59.1
2018-11-07T09:57:01.428Z,61.6
2018-11-07T09:58:01.589Z,59.2
2018-11-07T09:59:01.495Z,60.8
2018-11-07T10:00:02.143Z,60
2018-11-07T10:01:02.049Z,60.3
2018-11-07T10:02:01.948Z,58.7
2018-11-07T10:03:01.915Z,57.9
2018-11-07T10:04:02.261Z,58.3
2018-11-07T10:05:02.243Z,59
2018-11-07T10:06:02.188Z,58.6
2018-11-07T10:07:02.115Z,58.1
2018-11-07T10:08:02.061Z,57.7
2018-11-07T10:09:01.991Z,57.7
2018-11-07T10:10:02.082Z,57.2
2018-11-07T10:11:02.107Z,56.6
2018-11-07T10:12:02.040Z,56.9
2018-11-07T10:13:01.971Z,57
2018-11-07T10:14:02.298Z,57
2018-11-07T10:15:02.208Z,57.4
2018-11-07T10:20:01.106Z,55.3
2018-11-07T10:24:00.672Z,54
2018-11-07T10:25:00.582Z,54.8
2018-11-07T10:26:00.508Z,53.3
2018-11-07T10:27:01.223Z,53.1
2018-11-07T10:28:04.123Z,53.5
2018-11-07T10:29:07.141Z,53.3
2018-11-07T10:30:09.786Z,53.7
2018-11-07T10:31:10.650Z,53.5
2018-11-07T10:32:10.572Z,53.9
2018-11-07T10:33:10.478Z,52.8
2018-11-07T10:34:10.794Z,52.5
2018-11-07T10:35:10.712Z,56
2018-11-07T10:36:10.622Z,53.7
2018-11-07T10:37:10.594Z,52.8
2018-11-07T10:38:10.942Z,53.4
2018-11-07T10:39:10.998Z,54.1
2018-11-07T10:40:10.930Z,52.9
2018-11-07T10:41:10.854Z,52.2
2018-11-07T10:42:10.839Z,53.6
2018-11-07T10:43:10.738Z,54
2018-11-07T10:44:11.388Z,52.8
2018-11-07T10:45:11.377Z,52.4
2018-11-07T10:46:11.824Z,52.8
2018-11-07T10:47:12.060Z,51.3
2018-11-07T10:51:11.213Z,48.6
2018-11-07T10:56:10.532Z,47.8
2018-11-07T10:58:10.230Z,47
2018-11-07T10:59:10.140Z,46.4
2018-11-07T11:01:09.814Z,46.2
2018-11-07T11:03:09.514Z,43.8
2018-11-07T11:04:09.921Z,43.6
2018-11-07T11:05:10.359Z,44.6
2018-11-07T11:06:10.500Z,44
2018-11-07T11:07:10.401Z,43.9
2018-11-07T11:08:10.390Z,45
2018-11-07T11:09:10.517Z,44.6
2018-11-07T11:10:10.396Z,44.6
2018-11-07T11:11:10.579Z,45.2
2018-11-07T11:12:10.697Z,44.5
2018-11-07T11:13:10.592Z,43.6
2018-11-07T11:14:10.940Z,43.6
2018-11-07T11:15:10.858Z,43.8
2018-11-07T11:16:10.764Z,44.2
2018-11-07T11:17:10.877Z,44.2
2018-11-07T11:18:10.920Z,44
2018-11-07T11:19:10.846Z,43.7
2018-11-07T11:20:10.769Z,43.3
2018-11-07T11:21:10.684Z,43.7
2018-11-07T11:22:10.580Z,43.6
2018-11-07T11:23:10.751Z,44
2018-11-07T11:24:11.148Z,45.1
2018-11-07T11:25:11.081Z,43.4
2018-11-07T11:26:10.990Z,42.8
2018-11-07T11:27:11.279Z,42.4
2018-11-07T11:28:11.282Z,43
2018-11-07T11:29:11.205Z,43.3
2018-11-07T11:30:11.130Z,42.9
2018-11-07T11:31:11.040Z,42.8
2018-11-07T11:32:10.966Z,43
2018-11-07T11:33:10.866Z,43
2018-11-07T11:34:12.812Z,43.1
2018-11-07T11:35:14.851Z,43.2
2018-11-07T11:36:15.601Z,43.2
2018-11-07T11:37:15.510Z,43
2018-11-07T11:38:15.412Z,42.4
2018-11-07T11:39:15.337Z,43
2018-11-07T11:40:15.280Z,42.4
2018-11-07T11:41:15.984Z,42.6
2018-11-07T11:42:16.337Z,42.5
2018-11-07T11:43:16.257Z,42.8
2018-11-07T11:44:16.595Z,41.2
2018-11-07T11:45:16.575Z,41.1
2018-11-07T11:46:16.487Z,41.8
2018-11-07T11:47:16.378Z,41.6
2018-11-07T11:48:16.270Z,41.4
2018-11-07T11:52:16.295Z,42.1
2018-11-07T11:53:16.206Z,40.7
2018-11-07T11:54:18.036Z,41.2
2018-11-07T11:55:17.969Z,40.1
2018-11-07T11:56:17.894Z,39.6
2018-11-07T11:58:17.558Z,39.8
2018-11-07T12:00:20.979Z,39.4
2018-11-07T12:01:22.046Z,39.5
2018-11-07T12:02:22.722Z,40
2018-11-07T12:04:27.300Z,40.1
2018-11-07T12:05:27.248Z,40.3
2018-11-07T12:06:27.466Z,39.9
2018-11-07T12:07:27.580Z,42.8
2018-11-07T12:08:28.101Z,42.3
2018-11-07T12:09:31.930Z,41.7
2018-11-07T12:10:31.857Z,41.4
2018-11-07T12:11:31.785Z,41.3
2018-11-07T12:12:32.911Z,43.1
2018-11-07T12:13:36.137Z,40.4
2018-11-07T12:14:37.683Z,40.7
2018-11-07T12:15:37.601Z,40.7
2018-11-07T12:16:38.651Z,42.8
2018-11-07T12:17:39.888Z,41.8
2018-11-07T12:18:45.996Z,41.8
2018-11-07T12:19:48.738Z,42.1
2018-11-07T12:20:48.627Z,42.7
2018-11-07T12:21:48.769Z,42.9
2018-11-07T12:22:48.679Z,42.9
2018-11-07T12:23:51.357Z,43.3
2018-11-07T12:24:51.709Z,43.3
2018-11-07T12:25:53.861Z,42
2018-11-07T12:26:54.221Z,42.4
2018-11-07T12:27:54.638Z,41.8
2018-11-07T12:28:54.769Z,41.4
2018-11-07T12:29:54.704Z,41.9
2018-11-07T12:30:59.310Z,42
2018-11-07T12:31:59.230Z,40.6
2018-11-07T12:33:02.136Z,40.5
2018-11-07T12:34:05.850Z,40.4
2018-11-07T12:35:06.203Z,40.8
2018-11-07T12:36:16.064Z,41.8
2018-11-07T12:37:16.137Z,41
2018-11-07T12:38:17.045Z,43.7
2018-11-07T12:39:20.820Z,42.8
2018-11-07T12:40:23.751Z,43
2018-11-07T12:41:23.689Z,43.1
2018-11-07T12:42:23.675Z,43
2018-11-07T12:43:26.904Z,42.4
2018-11-07T12:44:26.845Z,42.3
2018-11-07T12:45:32.020Z,42.5
2018-11-07T12:46:32.139Z,41.1
2018-11-07T12:47:38.827Z,41
2018-11-07T12:48:38.745Z,39.5
2018-11-07T12:49:38.971Z,39.7
2018-11-07T12:50:42.372Z,40.2
2018-11-07T12:51:42.291Z,40.7
2018-11-07T12:52:42.461Z,39.8
2018-11-07T12:53:42.402Z,39.1
2018-11-07T12:54:42.528Z,38.6
2018-11-07T12:55:45.898Z,39.8
2018-11-07T12:56:46.261Z,37.7
2018-11-07T12:57:46.872Z,39.5
2018-11-07T12:58:47.276Z,39.4
2018-11-07T12:59:49.978Z,38.9
2018-11-07T13:00:49.893Z,39.1
2018-11-07T13:01:50.821Z,39.5
2018-11-07T13:02:52.197Z,38.7
2018-11-07T13:03:52.625Z,39.5
2018-11-07T13:04:52.534Z,39.7
2018-11-07T13:05:53.346Z,38.5
2018-11-07T13:06:53.491Z,37.9
2018-11-07T13:07:53.706Z,40.5
2018-11-07T13:08:53.862Z,38.6
2018-11-07T13:09:53.792Z,39
2018-11-07T13:10:53.710Z,38.2
2018-11-07T13:11:56.433Z,38.8
2018-11-07T13:12:56.386Z,37.7
2018-11-07T13:13:56.304Z,37.7
2018-11-07T13:14:56.222Z,38
2018-11-07T13:15:56.629Z,39.7
2018-11-07T13:16:56.542Z,39.4
2018-11-07T13:17:56.481Z,38.9
2018-11-07T13:18:56.389Z,38.9
2018-11-07T13:19:56.338Z,38.5
2018-11-07T13:20:56.271Z,37.7
2018-11-07T13:21:56.180Z,38.5
2018-11-07T13:22:56.079Z,37.4
2018-11-07T13:23:56.017Z,37
2018-11-07T13:24:55.922Z,37.7
2018-11-07T13:25:56.275Z,38.7
2018-11-07T13:26:56.172Z,38.9
2018-11-07T13:27:56.274Z,39.2
2018-11-07T13:28:56.351Z,38.9
2018-11-07T13:29:56.250Z,39.2
2018-11-07T13:30:56.191Z,38.8
2018-11-07T13:31:56.104Z,39.2
2018-11-07T13:32:56.006Z,40.5
2018-11-07T13:33:56.024Z,42.5
2018-11-07T13:34:56.578Z,42.2
2018-11-07T13:35:57.295Z,42.2
2018-11-07T13:36:58.157Z,42.2
2018-11-07T13:38:00.153Z,42.9
2018-11-07T13:39:02.829Z,43.4
2018-11-07T13:40:04.504Z,43.8
2018-11-07T13:41:04.849Z,44
2018-11-07T13:42:05.248Z,43.9
2018-11-07T13:43:05.176Z,43.6
2018-11-07T13:44:05.168Z,43.4
2018-11-07T13:45:05.077Z,43.4
2018-11-07T13:46:05.997Z,43.4
2018-11-07T13:47:06.294Z,43.7
2018-11-07T13:48:06.218Z,41.4
2018-11-07T13:49:06.132Z,40.9
2018-11-07T13:50:06.074Z,39.6
2018-11-07T13:51:05.977Z,39.3
2018-11-07T13:52:05.880Z,39.6
2018-11-07T13:53:06.169Z,39.7
2018-11-07T13:54:06.323Z,38.4
2018-11-07T13:55:06.268Z,38.5
2018-11-07T13:56:06.625Z,39
2018-11-07T13:57:06.533Z,38.4
2018-11-07T13:58:06.449Z,38.9
2018-11-07T13:59:06.526Z,39.2
2018-11-07T14:00:06.486Z,39.5
2018-11-07T14:01:06.417Z,39.9
2018-11-07T14:02:06.328Z,39.4
2018-11-07T14:03:06.229Z,39.5
2018-11-07T14:04:06.149Z,38.6
2018-11-07T14:05:06.209Z,39.1
2018-11-07T14:06:07.850Z,39.3
2018-11-07T14:07:07.799Z,39.3
2018-11-07T14:08:07.722Z,38.9
2018-11-07T14:09:07.621Z,39.7
2018-11-07T14:10:07.521Z,40.7
2018-11-07T14:11:07.444Z,43.3
2018-11-07T14:12:07.372Z,46
2018-11-07T14:13:07.280Z,47.1
2018-11-07T14:14:07.195Z,48.1
2018-11-07T14:15:07.110Z,48.3
2018-11-07T14:16:08.390Z,48.9
2018-11-07T14:17:09.015Z,49.3
2018-11-07T14:18:08.930Z,49.5
2018-11-07T14:19:08.859Z,49.6
2018-11-07T14:20:08.776Z,50.1
2018-11-07T14:21:08.705Z,50.3
2018-11-07T14:22:08.618Z,50
2018-11-07T14:23:08.544Z,49.6
2018-11-07T14:24:08.459Z,49.9
2018-11-07T14:25:08.357Z,50
2018-11-07T14:26:08.850Z,49.9
2018-11-07T14:27:09.016Z,50.1
2018-11-07T14:28:10.153Z,50.1
2018-11-07T14:29:10.706Z,49.8
2018-11-07T14:30:10.656Z,49.8
2018-11-07T14:31:10.560Z,49.9
2018-11-07T14:32:10.489Z,49.6
2018-11-07T14:33:10.443Z,49.4
2018-11-07T14:34:10.699Z,49.4
2018-11-07T14:35:10.777Z,49.2
2018-11-07T14:36:11.116Z,49.8
2018-11-07T14:37:11.002Z,49.8
2018-11-07T14:38:10.899Z,50.2
2018-11-07T14:39:11.267Z,49.4
2018-11-07T14:40:11.442Z,49.3
2018-11-07T14:41:11.357Z,50
2018-11-07T14:42:11.269Z,48.9
2018-11-07T14:43:11.187Z,47.1
2018-11-07T14:44:11.109Z,44.6
2018-11-07T14:45:11.035Z,45
2018-11-07T14:46:11.710Z,44.5
2018-11-07T14:47:12.338Z,43.8
2018-11-07T14:48:12.636Z,44.1
2018-11-07T14:49:12.545Z,43.6
2018-11-07T14:50:12.481Z,43.1
2018-11-07T14:51:12.405Z,43.2
2018-11-07T14:52:12.327Z,43.2
2018-11-07T14:53:12.237Z,43.2
2018-11-07T14:54:12.194Z,42.7
2018-11-07T14:55:12.195Z,42.4
2018-11-07T14:56:12.601Z,43.2
2018-11-07T14:57:12.515Z,43.2
2018-11-07T14:58:12.425Z,43.1
2018-11-07T14:59:12.332Z,42.6
2018-11-07T15:02:11.769Z,41.8
2018-11-07T15:10:12.137Z,41.1
2018-11-07T15:14:11.472Z,41.4
2018-11-07T15:16:11.571Z,41.3
2018-11-07T15:17:11.740Z,42.1
2018-11-07T15:18:11.962Z,42.3
2018-11-07T15:19:11.863Z,42.5
2018-11-07T15:20:11.759Z,42.7
2018-11-07T15:21:11.688Z,42.9
2018-11-07T15:22:11.607Z,43.1
2018-11-07T15:23:11.536Z,43.5
2018-11-07T15:24:11.443Z,43.3
2018-11-07T15:25:11.859Z,43.3
2018-11-07T15:26:12.216Z,43.5
2018-11-07T15:27:12.129Z,43.7
2018-11-07T15:28:12.064Z,43.7
2018-11-07T15:29:11.952Z,43.7
2018-11-07T15:30:11.857Z,43.8
2018-11-07T15:31:11.756Z,43.8
2018-11-07T15:32:11.680Z,44
2018-11-07T15:33:11.606Z,44.4
2018-11-07T15:34:11.524Z,44.5
2018-11-07T15:35:11.445Z,44.5
2018-11-07T15:36:12.537Z,44.9
2018-11-07T15:37:13.158Z,44.5
2018-11-07T15:38:14.604Z,44.6
2018-11-07T15:39:14.506Z,45.1
2018-11-07T15:40:14.425Z,45.2
2018-11-07T15:41:14.340Z,44.9
2018-11-07T15:42:14.249Z,45.1
2018-11-07T15:43:14.422Z,45.3
2018-11-07T15:44:14.494Z,45.5
2018-11-07T15:45:14.393Z,45.4
2018-11-07T15:46:14.782Z,45.5
2018-11-07T15:47:14.710Z,45.5
2018-11-07T15:48:14.876Z,45.5
2018-11-07T15:49:15.026Z,45.7
2018-11-07T15:50:14.944Z,45.8
2018-11-07T15:51:14.879Z,46
2018-11-07T15:52:14.851Z,45.9
2018-11-07T15:53:14.836Z,46.1
2018-11-07T15:54:14.742Z,46.2
2018-11-07T15:55:14.682Z,46.3
2018-11-07T15:56:15.095Z,46.4
2018-11-07T15:57:15.015Z,46.4
2018-11-07T15:58:14.938Z,46.6
2018-11-07T15:59:14.858Z,46.6
2018-11-07T16:00:15.589Z,46.6
2018-11-07T16:01:15.730Z,46.7
2018-11-07T16:02:15.648Z,46.6
2018-11-07T16:03:15.572Z,46.7
2018-11-07T16:04:15.488Z,46.8
2018-11-07T16:05:15.398Z,46.6
2018-11-07T16:06:16.597Z,46.8
2018-11-07T16:07:17.028Z,46.9
2018-11-07T16:08:16.930Z,47
2018-11-07T16:09:16.827Z,47.1
2018-11-07T16:10:17.043Z,47.2
2018-11-07T16:11:17.234Z,47.5
2018-11-07T16:12:17.168Z,47.5
2018-11-07T16:13:17.563Z,47.6
2018-11-07T16:14:17.887Z,47.9
2018-11-07T16:15:18.361Z,47.9
2018-11-07T16:16:19.490Z,48.1
2018-11-07T16:17:19.400Z,48.1
2018-11-07T16:18:19.304Z,48.3
2018-11-07T16:19:19.217Z,48.3
2018-11-07T16:20:19.183Z,48.4
2018-11-07T16:21:19.097Z,48.6
2018-11-07T16:22:19.043Z,49
2018-11-07T16:23:19.402Z,48.4
2018-11-07T16:24:19.595Z,48.7
2018-11-07T16:25:19.777Z,48.8
2018-11-07T16:26:20.664Z,48.9
2018-11-07T16:27:20.626Z,49.1
2018-11-07T16:28:20.575Z,49.2
2018-11-07T16:29:20.494Z,49.5
2018-11-07T16:30:20.405Z,49.6
2018-11-07T16:31:20.457Z,49.4
2018-11-07T16:32:20.507Z,49.6
2018-11-07T16:33:20.430Z,49.7
2018-11-07T16:34:23.596Z,49.9
2018-11-07T16:35:23.504Z,50.2
2018-11-07T16:36:23.930Z,50.2
2018-11-07T16:37:23.864Z,50.3
2018-11-07T16:39:23.674Z,49.7
2018-11-07T16:46:24.534Z,55.5
2018-11-07T16:47:24.872Z,55.9
2018-11-07T16:48:25.023Z,55.9
2018-11-07T16:49:25.008Z,55.7
2018-11-07T16:50:25.028Z,57.2
2018-11-07T16:51:25.046Z,56.5
2018-11-07T16:52:25.143Z,56.7
2018-11-07T16:53:25.444Z,58.2
2018-11-07T16:54:25.448Z,59.2
2018-11-07T16:55:25.440Z,61
2018-11-07T16:56:26.024Z,60.2
2018-11-07T16:57:26.003Z,60.7
2018-11-07T16:58:26.002Z,62
2018-11-07T16:59:26.004Z,62.9
2018-11-07T17:00:25.970Z,62.3
2018-11-07T17:01:25.910Z,62.6
2018-11-07T17:02:25.838Z,62.9
2018-11-07T17:03:25.750Z,63.5
2018-11-07T17:04:25.863Z,63.2
2018-11-07T17:05:26.072Z,63.2
2018-11-07T17:06:26.456Z,63.9
2018-11-07T17:07:26.380Z,63.2
2018-11-07T17:08:26.310Z,64.3
2018-11-07T17:09:26.227Z,65.2
2018-11-07T17:10:26.152Z,65.2
2018-11-07T17:11:26.055Z,65.1
2018-11-07T17:12:26.040Z,64.7
2018-11-07T17:13:25.976Z,65.9
2018-11-07T17:14:25.896Z,65.9
2018-11-07T17:15:25.840Z,66.1
2018-11-07T17:16:26.967Z,66.3
2018-11-07T17:17:26.898Z,67.6
2018-11-07T17:18:26.833Z,67.4
2018-11-07T17:19:26.755Z,67
2018-11-07T17:20:26.743Z,66.7